Terminal Aerodrome Forecast
Issued by NWS

Home | Current Version | Previous Version | Text Only | Print | Product List | Glossary On
Versions: 1 2 3 4 5 6 7 8 9 10 11 12 13 14 15 16 17 18 19 20 21 22 23 24 25 26 27 28 29 30 31 32
000
FTUS45 KLKN 212320
TAFEKO
TAF
KEKO 212320Z 2200/2224 31010KT P6SM -SHRA SCT025 OVC045
     FM220200 30009KT P6SM VCSH SCT040 OVC060
     FM221800 31012G18KT P6SM BKN040=

USA.gov is the U.S. government's official web portal to all federal, state and local government web resources and services.